sensor_id;sensor_type;location;lat;lon;timestamp;P1;durP1;ratioP1;P2;durP2;ratioP2
52124;SDS011;38119;52.710;6.398;2023-05-10T00:01:55;16.15;;;12.35;;
52124;SDS011;38119;52.710;6.398;2023-05-10T00:04:21;17.20;;;12.95;;
52124;SDS011;38119;52.710;6.398;2023-05-10T00:06:46;16.98;;;12.80;;
52124;SDS011;38119;52.710;6.398;2023-05-10T00:09:12;17.15;;;13.13;;
52124;SDS011;38119;52.710;6.398;2023-05-10T00:11:38;17.15;;;12.80;;
52124;SDS011;38119;52.710;6.398;2023-05-10T00:14:04;17.75;;;13.70;;
52124;SDS011;38119;52.710;6.398;2023-05-10T00:16:30;18.67;;;12.38;;
52124;SDS011;38119;52.710;6.398;2023-05-10T00:18:55;16.45;;;12.88;;
52124;SDS011;38119;52.710;6.398;2023-05-10T00:21:21;17.02;;;12.23;;
52124;SDS011;38119;52.710;6.398;2023-05-10T00:23:46;16.98;;;13.15;;
52124;SDS011;38119;52.710;6.398;2023-05-10T00:26:12;16.05;;;12.45;;
52124;SDS011;38119;52.710;6.398;2023-05-10T00:28:37;18.40;;;12.80;;
52124;SDS011;38119;52.710;6.398;2023-05-10T00:31:03;18.77;;;12.70;;
52124;SDS011;38119;52.710;6.398;2023-05-10T00:33:29;17.33;;;12.45;;
52124;SDS011;38119;52.710;6.398;2023-05-10T00:35:54;14.32;;;11.27;;
52124;SDS011;38119;52.710;6.398;2023-05-10T00:38:20;18.80;;;12.77;;
52124;SDS011;38119;52.710;6.398;2023-05-10T00:40:45;16.83;;;12.13;;
52124;SDS011;38119;52.710;6.398;2023-05-10T00:43:11;17.52;;;12.18;;
52124;SDS011;38119;52.710;6.398;2023-05-10T00:45:36;16.65;;;11.85;;
52124;SDS011;38119;52.710;6.398;2023-05-10T00:48:04;14.70;;;11.50;;
52124;SDS011;38119;52.710;6.398;2023-05-10T00:50:30;15.32;;;11.07;;
52124;SDS011;38119;52.710;6.398;2023-05-10T00:52:57;15.13;;;10.90;;
52124;SDS011;38119;52.710;6.398;2023-05-10T00:55:24;15.25;;;10.52;;
52124;SDS011;38119;52.710;6.398;2023-05-10T00:57:50;15.65;;;11.10;;
52124;SDS011;38119;52.710;6.398;2023-05-10T01:00:17;14.93;;;10.25;;
52124;SDS011;38119;52.710;6.398;2023-05-10T01:02:46;13.80;;;10.30;;
52124;SDS011;38119;52.710;6.398;2023-05-10T01:05:12;13.70;;;10.23;;
52124;SDS011;38119;52.710;6.398;2023-05-10T01:07:39;13.45;;;9.68;;
52124;SDS011;38119;52.710;6.398;2023-05-10T01:10:05;12.43;;;9.57;;
52124;SDS011;38119;52.710;6.398;2023-05-10T01:12:32;11.60;;;8.73;;
52124;SDS011;38119;52.710;6.398;2023-05-10T01:15:00;10.70;;;8.35;;
52124;SDS011;38119;52.710;6.398;2023-05-10T01:17:27;12.73;;;9.00;;
52124;SDS011;38119;52.710;6.398;2023-05-10T01:19:53;13.02;;;9.02;;
52124;SDS011;38119;52.710;6.398;2023-05-10T01:40:49;11.70;;;7.65;;
52124;SDS011;38119;52.710;6.398;2023-05-10T01:43:23;12.45;;;6.70;;
52124;SDS011;38119;52.710;6.398;2023-05-10T01:48:35;8.95;;;6.68;;
52124;SDS011;38119;52.710;6.398;2023-05-10T01:51:11;9.07;;;6.80;;
52124;SDS011;38119;52.710;6.398;2023-05-10T01:53:38;8.07;;;6.35;;
52124;SDS011;38119;52.710;6.398;2023-05-10T01:56:05;8.80;;;7.03;;
52124;SDS011;38119;52.710;6.398;2023-05-10T01:58:33;7.68;;;6.28;;
52124;SDS011;38119;52.710;6.398;2023-05-10T02:01:01;10.32;;;6.88;;
52124;SDS011;38119;52.710;6.398;2023-05-10T02:03:29;7.57;;;6.20;;
52124;SDS011;38119;52.710;6.398;2023-05-10T02:05:57;9.13;;;6.55;;
52124;SDS011;38119;52.710;6.398;2023-05-10T02:08:23;8.45;;;5.68;;
52124;SDS011;38119;52.710;6.398;2023-05-10T02:10:53;8.20;;;5.82;;
52124;SDS011;38119;52.710;6.398;2023-05-10T02:13:23;8.65;;;5.82;;
52124;SDS011;38119;52.710;6.398;2023-05-10T02:15:50;8.35;;;5.60;;
52124;SDS011;38119;52.710;6.398;2023-05-10T02:18:18;7.40;;;5.70;;
52124;SDS011;38119;52.710;6.398;2023-05-10T02:20:44;7.88;;;5.85;;
52124;SDS011;38119;52.710;6.398;2023-05-10T02:23:11;10.45;;;6.00;;
52124;SDS011;38119;52.710;6.398;2023-05-10T02:25:37;8.38;;;6.30;;
52124;SDS011;38119;52.710;6.398;2023-05-10T02:28:04;7.97;;;5.38;;
52124;SDS011;38119;52.710;6.398;2023-05-10T02:30:31;8.55;;;6.20;;
52124;SDS011;38119;52.710;6.398;2023-05-10T02:32:58;7.85;;;6.07;;
52124;SDS011;38119;52.710;6.398;2023-05-10T02:35:26;9.30;;;5.95;;
52124;SDS011;38119;52.710;6.398;2023-05-10T02:37:53;10.00;;;6.13;;
52124;SDS011;38119;52.710;6.398;2023-05-10T02:40:19;8.48;;;6.00;;
52124;SDS011;38119;52.710;6.398;2023-05-10T02:42:48;10.05;;;6.18;;
52124;SDS011;38119;52.710;6.398;2023-05-10T02:45:18;8.73;;;6.10;;
52124;SDS011;38119;52.710;6.398;2023-05-10T02:47:46;9.70;;;6.47;;
52124;SDS011;38119;52.710;6.398;2023-05-10T02:50:13;8.00;;;6.00;;
52124;SDS011;38119;52.710;6.398;2023-05-10T02:52:51;8.50;;;6.53;;
52124;SDS011;38119;52.710;6.398;2023-05-10T02:55:22;9.68;;;7.07;;
52124;SDS011;38119;52.710;6.398;2023-05-10T02:57:57;12.02;;;6.90;;
52124;SDS011;38119;52.710;6.398;2023-05-10T03:00:25;11.57;;;7.10;;
52124;SDS011;38119;52.710;6.398;2023-05-10T03:02:51;9.55;;;6.97;;
52124;SDS011;38119;52.710;6.398;2023-05-10T03:05:16;9.18;;;7.05;;
52124;SDS011;38119;52.710;6.398;2023-05-10T03:07:42;8.85;;;6.47;;
52124;SDS011;38119;52.710;6.398;2023-05-10T03:10:08;11.20;;;7.18;;
52124;SDS011;38119;52.710;6.398;2023-05-10T03:18:11;11.00;;;7.10;;
52124;SDS011;38119;52.710;6.398;2023-05-10T03:20:42;10.70;;;7.03;;
52124;SDS011;38119;52.710;6.398;2023-05-10T03:23:13;11.57;;;7.45;;
52124;SDS011;38119;52.710;6.398;2023-05-10T03:25:46;10.85;;;7.72;;
52124;SDS011;38119;52.710;6.398;2023-05-10T03:28:14;10.60;;;7.25;;
52124;SDS011;38119;52.710;6.398;2023-05-10T03:30:41;7.97;;;6.22;;
52124;SDS011;38119;52.710;6.398;2023-05-10T03:33:10;11.85;;;7.75;;
52124;SDS011;38119;52.710;6.398;2023-05-10T03:35:37;12.85;;;7.82;;
52124;SDS011;38119;52.710;6.398;2023-05-10T03:38:03;10.00;;;7.45;;
52124;SDS011;38119;52.710;6.398;2023-05-10T03:40:28;11.27;;;8.05;;
52124;SDS011;38119;52.710;6.398;2023-05-10T03:42:56;11.77;;;8.32;;
52124;SDS011;38119;52.710;6.398;2023-05-10T03:45:22;10.93;;;7.85;;
52124;SDS011;38119;52.710;6.398;2023-05-10T03:47:48;12.77;;;8.38;;
52124;SDS011;38119;52.710;6.398;2023-05-10T03:50:13;12.45;;;8.82;;
52124;SDS011;38119;52.710;6.398;2023-05-10T03:52:39;11.95;;;8.70;;
52124;SDS011;38119;52.710;6.398;2023-05-10T03:55:04;13.05;;;8.15;;
52124;SDS011;38119;52.710;6.398;2023-05-10T03:57:31;12.25;;;8.52;;
52124;SDS011;38119;52.710;6.398;2023-05-10T03:59:57;13.80;;;9.20;;
52124;SDS011;38119;52.710;6.398;2023-05-10T04:02:22;12.30;;;8.25;;
52124;SDS011;38119;52.710;6.398;2023-05-10T04:04:48;12.63;;;7.75;;
52124;SDS011;38119;52.710;6.398;2023-05-10T04:07:13;11.80;;;8.18;;
52124;SDS011;38119;52.710;6.398;2023-05-10T04:09:39;12.95;;;8.30;;
52124;SDS011;38119;52.710;6.398;2023-05-10T04:12:05;10.15;;;7.68;;
52124;SDS011;38119;52.710;6.398;2023-05-10T04:14:31;13.13;;;7.65;;
52124;SDS011;38119;52.710;6.398;2023-05-10T04:16:56;11.27;;;7.82;;
52124;SDS011;38119;52.710;6.398;2023-05-10T04:19:22;11.30;;;7.65;;
52124;SDS011;38119;52.710;6.398;2023-05-10T04:21:48;11.30;;;7.72;;
52124;SDS011;38119;52.710;6.398;2023-05-10T04:24:13;10.32;;;7.43;;
52124;SDS011;38119;52.710;6.398;2023-05-10T04:26:39;10.35;;;6.97;;
52124;SDS011;38119;52.710;6.398;2023-05-10T04:29:05;9.77;;;6.65;;
52124;SDS011;38119;52.710;6.398;2023-05-10T04:31:31;9.90;;;6.95;;
52124;SDS011;38119;52.710;6.398;2023-05-10T04:33:56;11.23;;;7.30;;
52124;SDS011;38119;52.710;6.398;2023-05-10T04:39:24;9.80;;;6.43;;
52124;SDS011;38119;52.710;6.398;2023-05-10T04:41:49;12.13;;;7.68;;
52124;SDS011;38119;52.710;6.398;2023-05-10T04:44:15;12.32;;;7.70;;
52124;SDS011;38119;52.710;6.398;2023-05-10T04:46:40;13.63;;;8.20;;
52124;SDS011;38119;52.710;6.398;2023-05-10T04:49:06;11.23;;;7.68;;
52124;SDS011;38119;52.710;6.398;2023-05-10T04:51:31;17.08;;;8.13;;
52124;SDS011;38119;52.710;6.398;2023-05-10T04:53:57;11.63;;;7.95;;
52124;SDS011;38119;52.710;6.398;2023-05-10T04:56:23;13.10;;;7.93;;
52124;SDS011;38119;52.710;6.398;2023-05-10T04:58:48;12.50;;;7.88;;
52124;SDS011;38119;52.710;6.398;2023-05-10T05:01:14;14.80;;;8.35;;
52124;SDS011;38119;52.710;6.398;2023-05-10T05:03:40;12.45;;;7.50;;
52124;SDS011;38119;52.710;6.398;2023-05-10T05:06:05;11.77;;;7.65;;
52124;SDS011;38119;52.710;6.398;2023-05-10T05:08:31;11.77;;;7.72;;
52124;SDS011;38119;52.710;6.398;2023-05-10T05:10:57;14.57;;;7.57;;
52124;SDS011;38119;52.710;6.398;2023-05-10T05:13:22;12.93;;;7.43;;
52124;SDS011;38119;52.710;6.398;2023-05-10T05:15:48;14.25;;;7.72;;
52124;SDS011;38119;52.710;6.398;2023-05-10T05:18:13;11.90;;;7.43;;
52124;SDS011;38119;52.710;6.398;2023-05-10T05:20:39;12.50;;;7.47;;
52124;SDS011;38119;52.710;6.398;2023-05-10T05:23:04;12.63;;;7.68;;
52124;SDS011;38119;52.710;6.398;2023-05-10T05:25:30;15.88;;;7.88;;
52124;SDS011;38119;52.710;6.398;2023-05-10T05:27:56;12.35;;;7.82;;
52124;SDS011;38119;52.710;6.398;2023-05-10T05:30:21;15.07;;;7.40;;
52124;SDS011;38119;52.710;6.398;2023-05-10T05:32:47;12.25;;;8.30;;
52124;SDS011;38119;52.710;6.398;2023-05-10T05:35:12;13.65;;;8.10;;
52124;SDS011;38119;52.710;6.398;2023-05-10T05:37:38;14.20;;;8.63;;
52124;SDS011;38119;52.710;6.398;2023-05-10T05:40:04;13.43;;;8.50;;
52124;SDS011;38119;52.710;6.398;2023-05-10T05:42:30;13.98;;;8.30;;
52124;SDS011;38119;52.710;6.398;2023-05-10T05:44:56;15.20;;;7.80;;
52124;SDS011;38119;52.710;6.398;2023-05-10T05:47:21;13.85;;;8.38;;
52124;SDS011;38119;52.710;6.398;2023-05-10T05:49:47;14.68;;;8.25;;
52124;SDS011;38119;52.710;6.398;2023-05-10T05:52:12;14.25;;;7.95;;
52124;SDS011;38119;52.710;6.398;2023-05-10T05:54:38;13.30;;;7.82;;
52124;SDS011;38119;52.710;6.398;2023-05-10T05:57:06;13.65;;;8.57;;
52124;SDS011;38119;52.710;6.398;2023-05-10T05:59:32;12.60;;;8.23;;
52124;SDS011;38119;52.710;6.398;2023-05-10T06:01:58;14.88;;;8.60;;
52124;SDS011;38119;52.710;6.398;2023-05-10T06:04:23;14.57;;;8.40;;
52124;SDS011;38119;52.710;6.398;2023-05-10T06:06:49;17.85;;;8.40;;
52124;SDS011;38119;52.710;6.398;2023-05-10T06:09:14;14.88;;;8.85;;
52124;SDS011;38119;52.710;6.398;2023-05-10T06:11:40;16.80;;;8.57;;
52124;SDS011;38119;52.710;6.398;2023-05-10T06:14:06;15.68;;;9.02;;
52124;SDS011;38119;52.710;6.398;2023-05-10T06:16:32;20.65;;;9.15;;
52124;SDS011;38119;52.710;6.398;2023-05-10T06:18:57;17.48;;;9.23;;
52124;SDS011;38119;52.710;6.398;2023-05-10T06:21:23;16.38;;;8.73;;
52124;SDS011;38119;52.710;6.398;2023-05-10T06:23:49;15.63;;;9.05;;
52124;SDS011;38119;52.710;6.398;2023-05-10T06:26:14;16.55;;;8.93;;
52124;SDS011;38119;52.710;6.398;2023-05-10T06:28:40;19.83;;;8.90;;
52124;SDS011;38119;52.710;6.398;2023-05-10T06:31:06;14.77;;;8.48;;
52124;SDS011;38119;52.710;6.398;2023-05-10T06:33:31;17.40;;;8.68;;
52124;SDS011;38119;52.710;6.398;2023-05-10T06:35:57;15.45;;;8.40;;
52124;SDS011;38119;52.710;6.398;2023-05-10T06:38:23;19.33;;;8.43;;
52124;SDS011;38119;52.710;6.398;2023-05-10T06:40:48;15.00;;;8.20;;
52124;SDS011;38119;52.710;6.398;2023-05-10T06:43:14;15.73;;;8.38;;
52124;SDS011;38119;52.710;6.398;2023-05-10T06:45:40;14.82;;;8.00;;
52124;SDS011;38119;52.710;6.398;2023-05-10T06:48:06;15.20;;;7.60;;
52124;SDS011;38119;52.710;6.398;2023-05-10T06:50:32;14.25;;;7.85;;
52124;SDS011;38119;52.710;6.398;2023-05-10T06:52:58;14.57;;;7.50;;
52124;SDS011;38119;52.710;6.398;2023-05-10T06:55:24;15.05;;;7.57;;
52124;SDS011;38119;52.710;6.398;2023-05-10T06:57:49;16.98;;;8.60;;
52124;SDS011;38119;52.710;6.398;2023-05-10T07:00:15;13.93;;;7.57;;
52124;SDS011;38119;52.710;6.398;2023-05-10T07:02:41;15.43;;;8.50;;
52124;SDS011;38119;52.710;6.398;2023-05-10T07:05:11;16.45;;;7.80;;
52124;SDS011;38119;52.710;6.398;2023-05-10T07:07:49;15.15;;;7.82;;
52124;SDS011;38119;52.710;6.398;2023-05-10T07:10:15;13.20;;;7.80;;
52124;SDS011;38119;52.710;6.398;2023-05-10T07:12:40;15.55;;;7.63;;
52124;SDS011;38119;52.710;6.398;2023-05-10T07:15:06;11.13;;;7.03;;
52124;SDS011;38119;52.710;6.398;2023-05-10T07:17:32;15.43;;;7.80;;
52124;SDS011;38119;52.710;6.398;2023-05-10T07:19:58;13.02;;;7.97;;
52124;SDS011;38119;52.710;6.398;2023-05-10T07:22:25;12.32;;;7.20;;
52124;SDS011;38119;52.710;6.398;2023-05-10T07:24:50;15.25;;;8.13;;
52124;SDS011;38119;52.710;6.398;2023-05-10T07:27:16;12.68;;;7.50;;
52124;SDS011;38119;52.710;6.398;2023-05-10T07:29:41;14.43;;;7.43;;
52124;SDS011;38119;52.710;6.398;2023-05-10T07:32:07;13.43;;;7.35;;
52124;SDS011;38119;52.710;6.398;2023-05-10T07:34:33;13.10;;;6.97;;
52124;SDS011;38119;52.710;6.398;2023-05-10T07:36:58;11.88;;;7.45;;
52124;SDS011;38119;52.710;6.398;2023-05-10T07:39:24;11.68;;;6.75;;
52124;SDS011;38119;52.710;6.398;2023-05-10T07:41:50;11.55;;;6.22;;
52124;SDS011;38119;52.710;6.398;2023-05-10T07:44:16;13.40;;;6.63;;
52124;SDS011;38119;52.710;6.398;2023-05-10T07:46:44;10.85;;;5.80;;
52124;SDS011;38119;52.710;6.398;2023-05-10T07:49:09;11.85;;;5.95;;
52124;SDS011;38119;52.710;6.398;2023-05-10T07:51:35;10.05;;;5.68;;
52124;SDS011;38119;52.710;6.398;2023-05-10T07:54:00;8.52;;;4.80;;
52124;SDS011;38119;52.710;6.398;2023-05-10T07:56:28;8.98;;;5.20;;
52124;SDS011;38119;52.710;6.398;2023-05-10T07:58:56;9.02;;;5.10;;
52124;SDS011;38119;52.710;6.398;2023-05-10T08:01:32;7.85;;;4.55;;
52124;SDS011;38119;52.710;6.398;2023-05-10T08:03:58;7.97;;;4.30;;
52124;SDS011;38119;52.710;6.398;2023-05-10T08:06:25;7.30;;;4.20;;
52124;SDS011;38119;52.710;6.398;2023-05-10T08:08:55;6.00;;;3.55;;
52124;SDS011;38119;52.710;6.398;2023-05-10T08:11:21;6.80;;;4.00;;
52124;SDS011;38119;52.710;6.398;2023-05-10T08:13:48;6.70;;;4.15;;
52124;SDS011;38119;52.710;6.398;2023-05-10T08:16:14;6.68;;;3.75;;
52124;SDS011;38119;52.710;6.398;2023-05-10T08:18:40;5.63;;;3.70;;
52124;SDS011;38119;52.710;6.398;2023-05-10T08:21:09;6.22;;;4.20;;
52124;SDS011;38119;52.710;6.398;2023-05-10T08:23:36;7.80;;;4.38;;
52124;SDS011;38119;52.710;6.398;2023-05-10T08:26:02;7.53;;;4.40;;
52124;SDS011;38119;52.710;6.398;2023-05-10T08:28:28;6.10;;;3.90;;
52124;SDS011;38119;52.710;6.398;2023-05-10T08:30:53;7.95;;;3.35;;
52124;SDS011;38119;52.710;6.398;2023-05-10T08:33:19;7.13;;;4.00;;
52124;SDS011;38119;52.710;6.398;2023-05-10T08:35:45;6.97;;;3.95;;
52124;SDS011;38119;52.710;6.398;2023-05-10T08:38:10;6.38;;;3.90;;
52124;SDS011;38119;52.710;6.398;2023-05-10T08:40:36;6.25;;;4.13;;
52124;SDS011;38119;52.710;6.398;2023-05-10T08:43:06;6.45;;;4.13;;
52124;SDS011;38119;52.710;6.398;2023-05-10T08:45:36;7.53;;;4.20;;
52124;SDS011;38119;52.710;6.398;2023-05-10T08:48:07;7.88;;;4.20;;
52124;SDS011;38119;52.710;6.398;2023-05-10T08:50:36;5.63;;;3.88;;
52124;SDS011;38119;52.710;6.398;2023-05-10T08:53:04;5.68;;;3.40;;
52124;SDS011;38119;52.710;6.398;2023-05-10T08:55:34;7.20;;;4.65;;
52124;SDS011;38119;52.710;6.398;2023-05-10T08:58:01;5.72;;;4.10;;
52124;SDS011;38119;52.710;6.398;2023-05-10T09:00:28;7.43;;;5.00;;
52124;SDS011;38119;52.710;6.398;2023-05-10T09:02:54;7.47;;;4.80;;
52124;SDS011;38119;52.710;6.398;2023-05-10T09:05:21;8.30;;;5.07;;
52124;SDS011;38119;52.710;6.398;2023-05-10T09:07:46;10.48;;;5.00;;
52124;SDS011;38119;52.710;6.398;2023-05-10T09:10:12;6.75;;;4.40;;
52124;SDS011;38119;52.710;6.398;2023-05-10T09:12:40;6.97;;;4.65;;
52124;SDS011;38119;52.710;6.398;2023-05-10T09:15:06;7.47;;;4.70;;
52124;SDS011;38119;52.710;6.398;2023-05-10T09:17:33;9.48;;;5.50;;
52124;SDS011;38119;52.710;6.398;2023-05-10T09:19:59;7.07;;;5.05;;
52124;SDS011;38119;52.710;6.398;2023-05-10T09:22:26;8.63;;;5.20;;
52124;SDS011;38119;52.710;6.398;2023-05-10T09:27:31;9.15;;;6.13;;
52124;SDS011;38119;52.710;6.398;2023-05-10T09:29:59;10.20;;;6.97;;
52124;SDS011;38119;52.710;6.398;2023-05-10T09:32:35;9.50;;;6.03;;
52124;SDS011;38119;52.710;6.398;2023-05-10T09:35:08;7.80;;;6.03;;
52124;SDS011;38119;52.710;6.398;2023-05-10T09:37:42;9.77;;;6.28;;
52124;SDS011;38119;52.710;6.398;2023-05-10T09:40:11;10.98;;;6.85;;
52124;SDS011;38119;52.710;6.398;2023-05-10T09:42:40;12.00;;;7.75;;
52124;SDS011;38119;52.710;6.398;2023-05-10T09:45:16;10.80;;;7.70;;
52124;SDS011;38119;52.710;6.398;2023-05-10T09:47:42;10.70;;;6.80;;
52124;SDS011;38119;52.710;6.398;2023-05-10T09:50:09;12.00;;;7.20;;
52124;SDS011;38119;52.710;6.398;2023-05-10T09:52:51;11.10;;;7.82;;
52124;SDS011;38119;52.710;6.398;2023-05-10T09:58:04;13.10;;;7.85;;
52124;SDS011;38119;52.710;6.398;2023-05-10T10:00:45;11.57;;;7.57;;
52124;SDS011;38119;52.710;6.398;2023-05-10T10:03:13;11.25;;;8.00;;
52124;SDS011;38119;52.710;6.398;2023-05-10T10:05:40;11.73;;;8.30;;
52124;SDS011;38119;52.710;6.398;2023-05-10T10:08:10;12.85;;;8.50;;
52124;SDS011;38119;52.710;6.398;2023-05-10T10:10:37;12.20;;;8.82;;
52124;SDS011;38119;52.710;6.398;2023-05-10T10:13:05;11.82;;;8.20;;
52124;SDS011;38119;52.710;6.398;2023-05-10T10:15:31;12.02;;;8.50;;
52124;SDS011;38119;52.710;6.398;2023-05-10T10:17:58;12.50;;;8.77;;
52124;SDS011;38119;52.710;6.398;2023-05-10T10:20:24;13.23;;;8.65;;
52124;SDS011;38119;52.710;6.398;2023-05-10T10:22:51;11.68;;;8.32;;
52124;SDS011;38119;52.710;6.398;2023-05-10T10:25:17;12.05;;;8.30;;
52124;SDS011;38119;52.710;6.398;2023-05-10T10:36:10;11.75;;;7.55;;
52124;SDS011;38119;52.710;6.398;2023-05-10T10:41:08;12.27;;;8.32;;
52124;SDS011;38119;52.710;6.398;2023-05-10T10:43:36;12.30;;;8.68;;
52124;SDS011;38119;52.710;6.398;2023-05-10T10:46:12;13.27;;;8.60;;
52124;SDS011;38119;52.710;6.398;2023-05-10T10:48:39;12.13;;;7.28;;
52124;SDS011;38119;52.710;6.398;2023-05-10T10:51:06;11.63;;;6.70;;
52124;SDS011;38119;52.710;6.398;2023-05-10T10:53:32;8.98;;;6.45;;
52124;SDS011;38119;52.710;6.398;2023-05-10T10:56:02;11.07;;;7.68;;
52124;SDS011;38119;52.710;6.398;2023-05-10T10:58:34;12.98;;;8.30;;
52124;SDS011;38119;52.710;6.398;2023-05-10T11:01:17;13.27;;;8.55;;
52124;SDS011;38119;52.710;6.398;2023-05-10T11:06:29;13.02;;;9.27;;
52124;SDS011;38119;52.710;6.398;2023-05-10T11:09:05;12.57;;;8.63;;
52124;SDS011;38119;52.710;6.398;2023-05-10T11:11:32;14.55;;;9.55;;
52124;SDS011;38119;52.710;6.398;2023-05-10T11:14:03;15.25;;;10.00;;
52124;SDS011;38119;52.710;6.398;2023-05-10T11:16:40;12.65;;;9.18;;
52124;SDS011;38119;52.710;6.398;2023-05-10T11:19:10;12.57;;;9.15;;
52124;SDS011;38119;52.710;6.398;2023-05-10T11:24:19;17.13;;;9.07;;
52124;SDS011;38119;52.710;6.398;2023-05-10T11:26:52;13.43;;;10.30;;
52124;SDS011;38119;52.710;6.398;2023-05-10T11:29:18;13.77;;;9.52;;
52124;SDS011;38119;52.710;6.398;2023-05-10T11:31:45;12.52;;;9.25;;
52124;SDS011;38119;52.710;6.398;2023-05-10T11:34:11;15.18;;;10.45;;
52124;SDS011;38119;52.710;6.398;2023-05-10T11:36:55;15.02;;;10.60;;
52124;SDS011;38119;52.710;6.398;2023-05-10T11:39:25;13.57;;;9.77;;
52124;SDS011;38119;52.710;6.398;2023-05-10T11:41:55;13.32;;;10.10;;
52124;SDS011;38119;52.710;6.398;2023-05-10T11:44:21;16.02;;;10.20;;
52124;SDS011;38119;52.710;6.398;2023-05-10T11:46:47;13.35;;;10.05;;
52124;SDS011;38119;52.710;6.398;2023-05-10T11:49:17;14.70;;;10.30;;
52124;SDS011;38119;52.710;6.398;2023-05-10T11:51:43;12.02;;;8.85;;
52124;SDS011;38119;52.710;6.398;2023-05-10T11:54:10;12.82;;;9.07;;
52124;SDS011;38119;52.710;6.398;2023-05-10T11:56:37;11.75;;;8.93;;
52124;SDS011;38119;52.710;6.398;2023-05-10T11:59:03;14.75;;;9.57;;
52124;SDS011;38119;52.710;6.398;2023-05-10T12:01:29;13.18;;;9.68;;
52124;SDS011;38119;52.710;6.398;2023-05-10T12:03:56;13.00;;;8.82;;
52124;SDS011;38119;52.710;6.398;2023-05-10T12:06:28;14.52;;;10.02;;
52124;SDS011;38119;52.710;6.398;2023-05-10T12:08:56;14.43;;;9.93;;
52124;SDS011;38119;52.710;6.398;2023-05-10T12:11:24;14.80;;;10.30;;
52124;SDS011;38119;52.710;6.398;2023-05-10T12:13:51;13.52;;;9.63;;
52124;SDS011;38119;52.710;6.398;2023-05-10T12:16:17;15.68;;;10.13;;
52124;SDS011;38119;52.710;6.398;2023-05-10T12:18:45;17.13;;;10.10;;
52124;SDS011;38119;52.710;6.398;2023-05-10T12:21:16;15.65;;;10.80;;
52124;SDS011;38119;52.710;6.398;2023-05-10T12:23:42;15.38;;;10.90;;
52124;SDS011;38119;52.710;6.398;2023-05-10T12:26:09;17.55;;;11.50;;
52124;SDS011;38119;52.710;6.398;2023-05-10T12:28:35;17.40;;;11.13;;
52124;SDS011;38119;52.710;6.398;2023-05-10T12:31:02;14.63;;;10.52;;
52124;SDS011;38119;52.710;6.398;2023-05-10T12:33:34;17.08;;;10.65;;
52124;SDS011;38119;52.710;6.398;2023-05-10T12:36:08;13.80;;;10.00;;
52124;SDS011;38119;52.710;6.398;2023-05-10T12:38:35;15.52;;;10.20;;
52124;SDS011;38119;52.710;6.398;2023-05-10T12:41:04;15.63;;;9.93;;
52124;SDS011;38119;52.710;6.398;2023-05-10T12:43:31;15.15;;;10.32;;
52124;SDS011;38119;52.710;6.398;2023-05-10T12:45:57;12.48;;;9.48;;
52124;SDS011;38119;52.710;6.398;2023-05-10T12:48:23;14.45;;;9.57;;
52124;SDS011;38119;52.710;6.398;2023-05-10T12:50:49;13.90;;;9.20;;
52124;SDS011;38119;52.710;6.398;2023-05-10T12:53:20;13.00;;;9.38;;
52124;SDS011;38119;52.710;6.398;2023-05-10T12:55:47;12.55;;;8.68;;
52124;SDS011;38119;52.710;6.398;2023-05-10T12:58:13;14.25;;;8.77;;
52124;SDS011;38119;52.710;6.398;2023-05-10T13:00:39;13.55;;;8.82;;
52124;SDS011;38119;52.710;6.398;2023-05-10T13:03:04;11.93;;;7.65;;
52124;SDS011;38119;52.710;6.398;2023-05-10T13:05:31;11.75;;;6.95;;
52124;SDS011;38119;52.710;6.398;2023-05-10T13:07:57;10.63;;;7.60;;
52124;SDS011;38119;52.710;6.398;2023-05-10T13:10:23;12.10;;;7.57;;
52124;SDS011;38119;52.710;6.398;2023-05-10T13:12:49;14.88;;;8.63;;
52124;SDS011;38119;52.710;6.398;2023-05-10T13:15:15;11.32;;;7.55;;
52124;SDS011;38119;52.710;6.398;2023-05-10T13:17:41;11.38;;;7.85;;
52124;SDS011;38119;52.710;6.398;2023-05-10T13:20:08;10.77;;;8.00;;
52124;SDS011;38119;52.710;6.398;2023-05-10T13:22:45;11.60;;;7.78;;
52124;SDS011;38119;52.710;6.398;2023-05-10T13:25:11;13.07;;;8.15;;
52124;SDS011;38119;52.710;6.398;2023-05-10T13:27:38;11.85;;;8.20;;
52124;SDS011;38119;52.710;6.398;2023-05-10T13:30:04;12.90;;;8.30;;
52124;SDS011;38119;52.710;6.398;2023-05-10T13:32:30;13.02;;;8.38;;
52124;SDS011;38119;52.710;6.398;2023-05-10T13:34:56;12.20;;;7.82;;
52124;SDS011;38119;52.710;6.398;2023-05-10T13:37:22;11.75;;;8.25;;
52124;SDS011;38119;52.710;6.398;2023-05-10T13:39:48;9.85;;;7.80;;
52124;SDS011;38119;52.710;6.398;2023-05-10T13:42:14;14.00;;;8.35;;
52124;SDS011;38119;52.710;6.398;2023-05-10T13:44:39;10.75;;;8.32;;
52124;SDS011;38119;52.710;6.398;2023-05-10T13:47:05;11.15;;;8.05;;
52124;SDS011;38119;52.710;6.398;2023-05-10T13:49:31;13.55;;;9.05;;
52124;SDS011;38119;52.710;6.398;2023-05-10T13:51:57;14.43;;;9.07;;
52124;SDS011;38119;52.710;6.398;2023-05-10T13:54:23;11.95;;;8.80;;
52124;SDS011;38119;52.710;6.398;2023-05-10T13:56:52;12.73;;;8.63;;
52124;SDS011;38119;52.710;6.398;2023-05-10T13:59:18;12.35;;;8.52;;
52124;SDS011;38119;52.710;6.398;2023-05-10T14:01:43;12.18;;;8.32;;
52124;SDS011;38119;52.710;6.398;2023-05-10T14:04:09;14.15;;;8.77;;
52124;SDS011;38119;52.710;6.398;2023-05-10T14:06:38;13.02;;;8.95;;
52124;SDS011;38119;52.710;6.398;2023-05-10T14:09:04;11.90;;;8.85;;
52124;SDS011;38119;52.710;6.398;2023-05-10T14:11:29;13.02;;;9.18;;
52124;SDS011;38119;52.710;6.398;2023-05-10T14:13:55;17.20;;;10.07;;
52124;SDS011;38119;52.710;6.398;2023-05-10T14:16:20;15.13;;;10.05;;
52124;SDS011;38119;52.710;6.398;2023-05-10T14:18:46;16.63;;;9.75;;
52124;SDS011;38119;52.710;6.398;2023-05-10T14:21:12;16.80;;;10.38;;
52124;SDS011;38119;52.710;6.398;2023-05-10T14:23:37;14.85;;;9.90;;
52124;SDS011;38119;52.710;6.398;2023-05-10T14:26:03;17.05;;;10.50;;
52124;SDS011;38119;52.710;6.398;2023-05-10T14:28:29;14.68;;;9.73;;
52124;SDS011;38119;52.710;6.398;2023-05-10T14:30:55;17.40;;;10.77;;
52124;SDS011;38119;52.710;6.398;2023-05-10T14:33:20;14.82;;;10.10;;
52124;SDS011;38119;52.710;6.398;2023-05-10T14:35:47;15.05;;;10.18;;
52124;SDS011;38119;52.710;6.398;2023-05-10T14:38:13;15.43;;;9.52;;
52124;SDS011;38119;52.710;6.398;2023-05-10T14:40:39;14.73;;;9.65;;
52124;SDS011;38119;52.710;6.398;2023-05-10T14:43:05;16.85;;;9.85;;
52124;SDS011;38119;52.710;6.398;2023-05-10T14:45:30;15.07;;;9.45;;
52124;SDS011;38119;52.710;6.398;2023-05-10T14:47:56;16.83;;;10.85;;
52124;SDS011;38119;52.710;6.398;2023-05-10T14:50:22;16.98;;;10.55;;
52124;SDS011;38119;52.710;6.398;2023-05-10T14:52:48;16.38;;;10.55;;
52124;SDS011;38119;52.710;6.398;2023-05-10T14:55:14;17.73;;;10.30;;
52124;SDS011;38119;52.710;6.398;2023-05-10T14:57:40;16.35;;;10.07;;
52124;SDS011;38119;52.710;6.398;2023-05-10T15:00:09;16.00;;;10.23;;
52124;SDS011;38119;52.710;6.398;2023-05-10T15:02:35;14.23;;;9.75;;
52124;SDS011;38119;52.710;6.398;2023-05-10T15:05:04;14.10;;;10.18;;
52124;SDS011;38119;52.710;6.398;2023-05-10T15:07:31;13.48;;;9.93;;
52124;SDS011;38119;52.710;6.398;2023-05-10T15:09:56;18.08;;;10.98;;
52124;SDS011;38119;52.710;6.398;2023-05-10T15:12:22;17.90;;;10.35;;
52124;SDS011;38119;52.710;6.398;2023-05-10T15:14:48;15.75;;;10.50;;
52124;SDS011;38119;52.710;6.398;2023-05-10T15:17:13;17.15;;;10.23;;
52124;SDS011;38119;52.710;6.398;2023-05-10T15:19:39;15.82;;;10.57;;
52124;SDS011;38119;52.710;6.398;2023-05-10T15:22:04;14.57;;;9.20;;
52124;SDS011;38119;52.710;6.398;2023-05-10T15:24:31;14.93;;;9.70;;
52124;SDS011;38119;52.710;6.398;2023-05-10T15:26:56;14.55;;;9.57;;